createdAt,value
2018-11-10T00:03:37.426Z,76.73
2018-11-10T00:08:40.575Z,84.00
2018-11-10T00:13:43.922Z,88.57
2018-11-10T00:18:47.084Z,86.80
2018-11-10T00:23:50.262Z,85.60
2018-11-10T00:28:53.445Z,90.35
2018-11-10T00:33:56.663Z,77.83
2018-11-10T00:38:59.761Z,79.73
2018-11-10T00:44:02.921Z,90.73
2018-11-10T00:49:06.263Z,85.43
2018-11-10T00:54:09.379Z,73.43
2018-11-10T00:59:12.597Z,71.60
2018-11-10T01:04:15.789Z,80.53
2018-11-10T01:09:18.906Z,71.60
2018-11-10T01:14:22.358Z,74.67
2018-11-10T01:19:25.505Z,79.73
2018-11-10T01:24:28.726Z,83.57
2018-11-10T01:29:31.869Z,76.83
2018-11-10T01:34:34.959Z,72.60
2018-11-10T01:39:38.110Z,74.70
2018-11-10T01:44:41.293Z,70.07
2018-11-10T01:49:44.410Z,82.27
2018-11-10T01:54:47.505Z,86.63
2018-11-10T01:59:50.644Z,74.67
2018-11-10T02:04:53.786Z,80.23
2018-11-10T02:09:56.970Z,74.53
2018-11-10T02:15:00.146Z,71.90
2018-11-10T02:20:03.298Z,70.30
2018-11-10T02:25:07.670Z,74.53
2018-11-10T02:30:11.283Z,69.07
2018-11-10T02:35:14.425Z,70.63
2018-11-10T02:40:17.572Z,65.53
2018-11-10T02:45:20.784Z,71.45
2018-11-10T02:50:23.873Z,61.90
2018-11-10T02:55:27.085Z,64.93
2018-11-10T03:00:30.284Z,60.83
2018-11-10T03:05:33.434Z,62.63
2018-11-10T03:10:36.641Z,67.42
2018-11-10T03:15:39.770Z,60.77
2018-11-10T03:20:42.975Z,59.50
2018-11-10T03:25:46.137Z,64.57
2018-11-10T03:30:49.273Z,73.10
2018-11-10T03:35:52.434Z,65.50
2018-11-10T03:40:55.594Z,64.10
2018-11-10T03:45:58.803Z,67.30
2018-11-10T03:51:01.977Z,62.90
2018-11-10T03:56:05.400Z,74.32
2018-11-10T04:01:08.495Z,66.80
2018-11-10T04:06:11.645Z,63.67
2018-11-10T04:11:14.818Z,74.53
2018-11-10T04:16:17.965Z,81.63
2018-11-10T04:21:21.098Z,73.33
2018-11-10T04:26:24.266Z,69.40
2018-11-10T04:31:27.378Z,76.23
2018-11-10T04:36:30.517Z,66.67
2018-11-10T04:41:33.673Z,79.58
2018-11-10T04:46:36.818Z,73.53
2018-11-10T04:51:39.937Z,82.03
2018-11-10T04:56:43.076Z,81.95
2018-11-10T05:01:46.274Z,76.37
2018-11-10T05:06:49.383Z,83.67
2018-11-10T05:11:52.580Z,73.13
2018-11-10T05:16:55.766Z,68.57
2018-11-10T05:21:58.948Z,79.80
2018-11-10T05:27:02.173Z,78.43
2018-11-10T05:32:05.276Z,76.27
2018-11-10T05:37:08.453Z,85.37
2018-11-10T05:42:11.574Z,82.47
2018-11-10T05:47:14.735Z,86.90
2018-11-10T05:52:17.882Z,82.83
2018-11-10T05:57:21.097Z,94.17
2018-11-10T06:02:24.210Z,79.27
2018-11-10T06:07:27.335Z,95.10
2018-11-10T06:12:30.513Z,81.27
2018-11-10T06:17:33.704Z,80.50
2018-11-10T06:22:36.889Z,85.07
2018-11-10T06:27:40.257Z,84.83
2018-11-10T06:32:43.504Z,93.40
2018-11-10T06:37:46.643Z,90.60
2018-11-10T06:42:49.740Z,94.90
2018-11-10T06:47:52.878Z,109.83
2018-11-10T06:52:56.076Z,97.93
2018-11-10T06:57:59.196Z,101.90
2018-11-10T07:03:02.420Z,106.77
2018-11-10T07:08:06.365Z,110.23
2018-11-10T07:13:09.495Z,116.93
2018-11-10T07:18:12.816Z,115.40
2018-11-10T07:23:15.968Z,119.20
2018-11-10T07:28:19.092Z,117.17
2018-11-10T07:33:22.275Z,115.13
2018-11-10T07:38:25.431Z,104.03
2018-11-10T07:43:28.615Z,114.13
2018-11-10T07:48:31.743Z,105.40
2018-11-10T07:53:35.094Z,99.10
2018-11-10T07:58:38.281Z,102.03
2018-11-10T08:03:41.426Z,95.57
2018-11-10T08:08:44.574Z,99.17
2018-11-10T08:13:47.773Z,111.75
2018-11-10T08:18:50.964Z,99.23
2018-11-10T08:23:54.089Z,91.97
2018-11-10T08:28:57.277Z,90.63
2018-11-10T08:34:00.383Z,89.50
2018-11-10T08:39:04.015Z,85.53
2018-11-10T08:44:07.578Z,99.07
2018-11-10T08:49:10.782Z,82.40
2018-11-10T08:54:13.845Z,79.47
2018-11-10T08:59:17.085Z,84.50
2018-11-10T09:04:20.209Z,84.03
2018-11-10T09:09:23.359Z,83.77
2018-11-10T09:14:27.147Z,85.70
2018-11-10T09:19:30.361Z,78.20
2018-11-10T09:24:33.565Z,87.00
2018-11-10T09:29:36.754Z,83.23
2018-11-10T09:34:39.901Z,81.93
2018-11-10T09:39:43.056Z,70.90
2018-11-10T09:44:46.198Z,76.33
2018-11-10T09:49:49.332Z,69.53
2018-11-10T09:54:52.473Z,69.20
2018-11-10T09:59:55.669Z,63.07
2018-11-10T10:04:58.826Z,68.17
2018-11-10T10:10:01.934Z,60.20
2018-11-10T10:15:06.124Z,61.23
2018-11-10T10:20:11.695Z,60.23
2018-11-10T10:25:15.620Z,59.00
2018-11-10T10:30:20.363Z,59.17
2018-11-10T10:35:23.668Z,58.50
2018-11-10T10:40:26.828Z,56.43
2018-11-10T10:45:30.010Z,60.40
2018-11-10T10:50:33.179Z,52.97
2018-11-10T10:55:37.453Z,56.23
2018-11-10T11:00:59.712Z,50.13
2018-11-10T11:06:03.000Z,48.03
2018-11-10T11:11:06.193Z,47.27
2018-11-10T11:16:09.398Z,44.93
2018-11-10T11:21:12.509Z,46.50
2018-11-10T11:26:15.662Z,46.75
2018-11-10T11:31:18.828Z,41.10
2018-11-10T11:36:22.053Z,50.50
2018-11-10T11:41:25.332Z,49.33
2018-11-10T11:46:28.359Z,45.07
2018-11-10T11:51:31.578Z,42.27
2018-11-10T11:56:35.257Z,43.50
2018-11-10T12:01:38.449Z,44.83
2018-11-10T12:06:41.619Z,43.27
2018-11-10T12:11:44.764Z,43.13
2018-11-10T12:16:48.003Z,41.33
2018-11-10T12:21:51.150Z,37.33
2018-11-10T12:26:54.416Z,41.77
2018-11-10T12:31:57.691Z,36.03
2018-11-10T12:37:00.706Z,36.00
2018-11-10T12:42:03.839Z,36.93
2018-11-10T12:47:07.061Z,35.90
2018-11-10T12:52:10.173Z,40.00
2018-11-10T12:57:13.382Z,38.87
2018-11-10T13:02:16.525Z,34.20
2018-11-10T13:07:20.537Z,35.90
2018-11-10T13:12:23.823Z,33.67
2018-11-10T13:17:27.095Z,38.57
2018-11-10T13:22:30.100Z,36.93
2018-11-10T13:27:33.262Z,40.43
2018-11-10T13:32:36.391Z,40.40
2018-11-10T13:37:39.491Z,43.87
2018-11-10T13:42:42.638Z,42.53
2018-11-10T13:47:45.773Z,40.93
2018-11-10T13:52:49.201Z,37.30
2018-11-10T13:57:52.046Z,42.27
2018-11-10T14:02:55.251Z,42.63
2018-11-10T14:07:58.394Z,40.43
2018-11-10T14:13:01.532Z,43.87
2018-11-10T14:18:04.639Z,41.30
2018-11-10T14:23:07.741Z,44.37
2018-11-10T14:28:10.902Z,39.80
2018-11-10T14:33:14.093Z,42.57
2018-11-10T14:38:17.222Z,55.50
2018-11-10T14:43:20.407Z,43.03
2018-11-10T14:48:23.529Z,49.80
2018-11-10T14:53:26.702Z,37.73
2018-11-10T14:58:29.862Z,40.83
2018-11-10T15:03:32.987Z,39.83
2018-11-10T15:08:36.164Z,35.97
2018-11-10T15:13:39.338Z,22.40
2018-11-10T15:18:42.529Z,23.90
2018-11-10T15:23:45.674Z,25.73
2018-11-10T15:28:48.789Z,20.93
2018-11-10T15:33:52.002Z,21.45
2018-11-10T15:38:55.082Z,23.75
2018-11-10T15:43:58.286Z,20.20
2018-11-10T15:49:01.396Z,19.53
2018-11-10T15:54:04.889Z,17.63
2018-11-10T15:59:08.674Z,21.20
2018-11-10T16:04:11.901Z,16.32
2018-11-10T16:09:15.062Z,15.53
2018-11-10T16:14:18.139Z,16.57
2018-11-10T16:19:21.296Z,13.83
2018-11-10T16:24:24.420Z,14.57
2018-11-10T16:29:27.570Z,12.93
2018-11-10T16:34:30.746Z,12.73
2018-11-10T16:39:33.909Z,14.57
2018-11-10T16:44:37.074Z,13.07
2018-11-10T16:49:40.152Z,12.53
2018-11-10T16:54:43.324Z,10.87
2018-11-10T16:59:46.513Z,10.17
2018-11-10T17:04:49.642Z,12.40
2018-11-10T17:09:52.813Z,10.93
2018-11-10T17:14:55.973Z,11.10
2018-11-10T17:19:59.128Z,11.83
2018-11-10T17:25:02.296Z,10.00
2018-11-10T17:30:11.383Z,10.07
2018-11-10T17:35:14.876Z,12.63
2018-11-10T17:40:18.032Z,10.57
2018-11-10T17:45:21.151Z,12.03
2018-11-10T17:50:24.296Z,11.23
2018-11-10T17:55:27.455Z,12.87
2018-11-10T18:00:30.690Z,12.10
2018-11-10T18:05:33.794Z,15.37
2018-11-10T18:10:36.944Z,18.27
2018-11-10T18:15:40.098Z,14.27
2018-11-10T18:20:43.286Z,19.83
2018-11-10T18:25:46.397Z,13.30
2018-11-10T18:30:49.579Z,15.63
2018-11-10T18:35:52.688Z,7.47
2018-11-10T18:40:55.876Z,7.07
2018-11-10T18:45:58.982Z,10.40
2018-11-10T18:51:02.316Z,5.07
2018-11-10T18:56:05.533Z,8.73
2018-11-10T19:01:08.675Z,9.43
2018-11-10T19:06:11.867Z,7.63
2018-11-10T19:11:15.153Z,6.43
2018-11-10T19:16:18.308Z,6.13
2018-11-10T19:21:21.557Z,5.43
2018-11-10T19:26:24.796Z,5.57
2018-11-10T19:31:28.001Z,4.43
2018-11-10T19:36:31.108Z,5.70
2018-11-10T19:41:34.253Z,5.60
2018-11-10T19:46:38.032Z,7.93
2018-11-10T19:51:41.488Z,5.57
2018-11-10T19:56:44.394Z,7.63
2018-11-10T20:01:47.600Z,6.93
2018-11-10T20:06:50.826Z,8.67
2018-11-10T20:11:54.011Z,6.80
2018-11-10T20:16:57.134Z,7.30
2018-11-10T20:22:00.358Z,9.83
2018-11-10T20:27:03.580Z,7.63
2018-11-10T20:32:06.669Z,9.00
2018-11-10T20:37:09.824Z,9.10
2018-11-10T20:42:12.990Z,13.17
2018-11-10T20:47:16.188Z,14.13
2018-11-10T20:52:19.350Z,14.33
2018-11-10T20:57:22.457Z,9.57
2018-11-10T21:02:25.955Z,8.90
2018-11-10T21:07:29.116Z,8.87
2018-11-10T21:12:32.237Z,12.13
2018-11-10T21:17:35.645Z,9.83
2018-11-10T21:22:38.794Z,13.20
2018-11-10T21:27:42.160Z,7.00
2018-11-10T21:32:45.890Z,10.60
2018-11-10T21:37:49.061Z,7.77
2018-11-10T21:42:52.229Z,9.30
2018-11-10T21:47:55.403Z,9.10
2018-11-10T21:52:58.553Z,9.03
2018-11-10T21:58:01.703Z,5.70
2018-11-10T22:03:04.859Z,8.60
2018-11-10T22:08:07.969Z,9.50
2018-11-10T22:13:11.085Z,9.43
2018-11-10T22:18:14.219Z,11.30
2018-11-10T22:23:17.365Z,9.80
2018-11-10T22:28:20.545Z,18.67
2018-11-10T22:33:23.700Z,8.87
2018-11-10T22:38:26.815Z,15.10
2018-11-10T22:43:29.980Z,14.83
2018-11-10T22:48:33.170Z,20.17
2018-11-10T22:53:36.298Z,21.50
2018-11-10T22:58:39.475Z,21.40
2018-11-10T23:03:42.638Z,22.53
2018-11-10T23:08:45.812Z,22.17
2018-11-10T23:13:48.979Z,12.53
2018-11-10T23:18:52.103Z,28.40
2018-11-10T23:23:55.204Z,14.93
2018-11-10T23:28:58.339Z,14.60
2018-11-10T23:34:01.448Z,19.87
2018-11-10T23:39:08.204Z,17.70
2018-11-10T23:44:11.713Z,17.55
2018-11-10T23:49:14.895Z,18.27
2018-11-10T23:54:18.142Z,29.43
2018-11-10T23:59:21.162Z,26.10
